sensor_id;sensor_type;location;lat;lon;timestamp;pressure;altitude;pressure_sealevel;temperature;humidity
21086;BME280;34247;50.064;19.970;2022-11-23T00:00:16;98259.72;;;2.84;96.08
21086;BME280;34247;50.064;19.970;2022-11-23T00:01:40;98256.31;;;2.82;96.15
21086;BME280;34247;50.064;19.970;2022-11-23T00:02:54;98254.72;;;2.79;95.92
21086;BME280;34247;50.064;19.970;2022-11-23T00:04:11;98247.88;;;2.76;95.84
21086;BME280;34247;50.064;19.970;2022-11-23T00:05:29;98248.00;;;2.73;96.29
21086;BME280;34247;50.064;19.970;2022-11-23T00:06:39;98251.66;;;2.71;96.21
21086;BME280;34247;50.064;19.970;2022-11-23T00:07:44;98240.41;;;2.69;96.33
21086;BME280;34247;50.064;19.970;2022-11-23T00:08:55;98249.97;;;2.70;96.24
21086;BME280;34247;50.064;19.970;2022-11-23T00:09:59;98251.75;;;2.69;96.18
21086;BME280;34247;50.064;19.970;2022-11-23T00:11:02;98249.13;;;2.69;96.60
21086;BME280;34247;50.064;19.970;2022-11-23T00:12:06;98256.06;;;2.70;96.53
21086;BME280;34247;50.064;19.970;2022-11-23T00:13:10;98257.81;;;2.70;96.34
21086;BME280;34247;50.064;19.970;2022-11-23T00:14:17;98258.75;;;2.69;96.45
21086;BME280;34247;50.064;19.970;2022-11-23T00:15:23;98253.53;;;2.69;96.27
21086;BME280;34247;50.064;19.970;2022-11-23T00:16:30;98254.28;;;2.71;96.42
21086;BME280;34247;50.064;19.970;2022-11-23T00:17:57;98253.44;;;2.70;96.31
21086;BME280;34247;50.064;19.970;2022-11-23T00:19:13;98254.19;;;2.72;96.06
21086;BME280;34247;50.064;19.970;2022-11-23T00:20:30;98252.59;;;2.70;96.06
21086;BME280;34247;50.064;19.970;2022-11-23T00:21:40;98251.66;;;2.71;96.19
21086;BME280;34247;50.064;19.970;2022-11-23T00:22:43;98252.59;;;2.70;96.10
21086;BME280;34247;50.064;19.970;2022-11-23T00:23:49;98251.56;;;2.72;96.13
21086;BME280;34247;50.064;19.970;2022-11-23T00:24:53;98258.59;;;2.72;95.91
21086;BME280;34247;50.064;19.970;2022-11-23T00:25:57;98251.56;;;2.72;95.76
21086;BME280;34247;50.064;19.970;2022-11-23T00:27:04;98252.50;;;2.71;96.01
21086;BME280;34247;50.064;19.970;2022-11-23T00:28:17;98253.44;;;2.70;95.62
21086;BME280;34247;50.064;19.970;2022-11-23T00:29:26;98255.22;;;2.70;95.71
21086;BME280;34247;50.064;19.970;2022-11-23T00:30:33;98249.13;;;2.69;95.99
21086;BME280;34247;50.064;19.970;2022-11-23T00:31:37;98244.72;;;2.70;95.76
21086;BME280;34247;50.064;19.970;2022-11-23T00:32:40;98251.81;;;2.68;95.58
21086;BME280;34247;50.064;19.970;2022-11-23T00:33:56;98251.81;;;2.68;95.79
21086;BME280;34247;50.064;19.970;2022-11-23T00:35:00;98257.03;;;2.68;96.09
21086;BME280;34247;50.064;19.970;2022-11-23T00:36:13;98262.38;;;2.66;95.90
21086;BME280;34247;50.064;19.970;2022-11-23T00:37:17;98259.06;;;2.63;95.84
21086;BME280;34247;50.064;19.970;2022-11-23T00:38:24;98259.16;;;2.61;95.77
21086;BME280;34247;50.064;19.970;2022-11-23T00:39:32;98252.19;;;2.60;96.07
21086;BME280;34247;50.064;19.970;2022-11-23T00:40:36;98252.19;;;2.60;95.96
21086;BME280;34247;50.064;19.970;2022-11-23T00:41:39;98255.69;;;2.61;96.08
21086;BME280;34247;50.064;19.970;2022-11-23T00:42:43;98247.91;;;2.59;95.95
21086;BME280;34247;50.064;19.970;2022-11-23T00:43:47;98253.13;;;2.59;96.07
21086;BME280;34247;50.064;19.970;2022-11-23T00:44:52;98252.38;;;2.57;95.68
21086;BME280;34247;50.064;19.970;2022-11-23T00:46:18;98262.78;;;2.59;96.00
21086;BME280;34247;50.064;19.970;2022-11-23T00:47:23;98258.47;;;2.58;95.95
21086;BME280;34247;50.064;19.970;2022-11-23T00:48:30;98261.09;;;2.58;96.24
21086;BME280;34247;50.064;19.970;2022-11-23T00:49:35;98261.09;;;2.58;95.92
21086;BME280;34247;50.064;19.970;2022-11-23T00:50:38;98263.78;;;2.56;95.89
21086;BME280;34247;50.064;19.970;2022-11-23T00:51:42;98266.31;;;2.58;96.13
21086;BME280;34247;50.064;19.970;2022-11-23T00:52:46;98266.22;;;2.59;96.17
21086;BME280;34247;50.064;19.970;2022-11-23T00:53:53;98264.63;;;2.57;96.09
21086;BME280;34247;50.064;19.970;2022-11-23T00:55:07;98266.22;;;2.59;96.45
21086;BME280;34247;50.064;19.970;2022-11-23T00:56:19;98272.41;;;2.58;96.47
21086;BME280;34247;50.064;19.970;2022-11-23T00:57:25;98268.94;;;2.58;96.04
21086;BME280;34247;50.064;19.970;2022-11-23T00:58:29;98275.09;;;2.57;96.39
21086;BME280;34247;50.064;19.970;2022-11-23T00:59:33;98275.09;;;2.57;96.31
21086;BME280;34247;50.064;19.970;2022-11-23T01:00:37;98277.66;;;2.58;96.42
21086;BME280;34247;50.064;19.970;2022-11-23T01:01:41;98266.31;;;2.58;96.25
21086;BME280;34247;50.064;19.970;2022-11-23T01:02:47;98281.09;;;2.59;96.34
21086;BME280;34247;50.064;19.970;2022-11-23T01:03:58;98277.66;;;2.58;96.49
21086;BME280;34247;50.064;19.970;2022-11-23T01:05:03;98273.16;;;2.60;96.64
21086;BME280;34247;50.064;19.970;2022-11-23T01:06:11;98273.09;;;2.62;96.34
21086;BME280;34247;50.064;19.970;2022-11-23T01:07:15;98272.25;;;2.61;96.29
21086;BME280;34247;50.064;19.970;2022-11-23T01:08:18;98269.66;;;2.61;96.49
21086;BME280;34247;50.064;19.970;2022-11-23T01:09:23;98267.88;;;2.62;96.33
21086;BME280;34247;50.064;19.970;2022-11-23T01:10:30;98262.63;;;2.62;96.16
21086;BME280;34247;50.064;19.970;2022-11-23T01:11:36;98260.00;;;2.62;96.17
21086;BME280;34247;50.064;19.970;2022-11-23T01:12:42;98263.47;;;2.62;96.53
21086;BME280;34247;50.064;19.970;2022-11-23T01:13:46;98255.69;;;2.61;96.49
21086;BME280;34247;50.064;19.970;2022-11-23T01:14:52;98258.91;;;2.66;96.64
21086;BME280;34247;50.064;19.970;2022-11-23T01:15:57;98256.53;;;2.61;96.63
21086;BME280;34247;50.064;19.970;2022-11-23T01:17:01;98258.31;;;2.61;96.39
21086;BME280;34247;50.064;19.970;2022-11-23T01:18:05;98258.63;;;2.55;96.76
21086;BME280;34247;50.064;19.970;2022-11-23T01:19:19;98255.84;;;2.58;96.77
21086;BME280;34247;50.064;19.970;2022-11-23T01:20:26;98255.84;;;2.58;96.38
21086;BME280;34247;50.064;19.970;2022-11-23T01:21:37;98264.47;;;2.60;96.42
21086;BME280;34247;50.064;19.970;2022-11-23T01:22:41;98257.84;;;2.53;96.59
21086;BME280;34247;50.064;19.970;2022-11-23T01:23:44;98253.53;;;2.52;96.68
21086;BME280;34247;50.064;19.970;2022-11-23T01:24:49;98255.22;;;2.53;96.48
21086;BME280;34247;50.064;19.970;2022-11-23T01:25:53;98249.09;;;2.54;96.54
21086;BME280;34247;50.064;19.970;2022-11-23T01:26:59;98243.91;;;2.52;96.36
21086;BME280;34247;50.064;19.970;2022-11-23T01:28:04;98250.81;;;2.53;96.48
21086;BME280;34247;50.064;19.970;2022-11-23T01:29:15;98252.47;;;2.56;96.46
21086;BME280;34247;50.064;19.970;2022-11-23T01:30:18;98250.78;;;2.55;96.57
21086;BME280;34247;50.064;19.970;2022-11-23T01:31:24;98247.44;;;2.51;96.44
21086;BME280;34247;50.064;19.970;2022-11-23T01:32:28;98247.53;;;2.49;96.45
21086;BME280;34247;50.064;19.970;2022-11-23T01:33:33;98248.63;;;2.45;96.56
21086;BME280;34247;50.064;19.970;2022-11-23T01:34:38;98250.34;;;2.46;96.54
21086;BME280;34247;50.064;19.970;2022-11-23T01:35:47;98254.63;;;2.47;96.38
21086;BME280;34247;50.064;19.970;2022-11-23T01:36:53;98251.22;;;2.45;96.42
21086;BME280;34247;50.064;19.970;2022-11-23T01:37:57;98250.47;;;2.43;96.64
21086;BME280;34247;50.064;19.970;2022-11-23T01:39:03;98251.41;;;2.42;96.63
21086;BME280;34247;50.064;19.970;2022-11-23T01:40:07;98249.00;;;2.38;96.58
21086;BME280;34247;50.064;19.970;2022-11-23T01:41:18;98250.69;;;2.39;96.76
21086;BME280;34247;50.064;19.970;2022-11-23T01:42:55;98247.41;;;2.35;96.83
21086;BME280;34247;50.064;19.970;2022-11-23T01:44:00;98252.66;;;2.35;97.14
21086;BME280;34247;50.064;19.970;2022-11-23T01:45:31;98254.41;;;2.35;97.00
21086;BME280;34247;50.064;19.970;2022-11-23T01:46:35;98250.94;;;2.34;97.00
21086;BME280;34247;50.064;19.970;2022-11-23T01:47:39;98257.97;;;2.34;97.18
21086;BME280;34247;50.064;19.970;2022-11-23T01:49:01;98262.50;;;2.30;97.31
21086;BME280;34247;50.064;19.970;2022-11-23T01:50:05;98259.78;;;2.32;97.25
21086;BME280;34247;50.064;19.970;2022-11-23T01:51:20;98263.19;;;2.34;97.04
21086;BME280;34247;50.064;19.970;2022-11-23T01:52:26;98262.19;;;2.36;97.28
21086;BME280;34247;50.064;19.970;2022-11-23T01:53:32;98262.09;;;2.38;97.15
21086;BME280;34247;50.064;19.970;2022-11-23T01:54:47;98256.81;;;2.39;97.05
21086;BME280;34247;50.064;19.970;2022-11-23T01:55:59;98268.97;;;2.40;97.09
21086;BME280;34247;50.064;19.970;2022-11-23T01:57:10;98268.03;;;2.41;97.13
21086;BME280;34247;50.064;19.970;2022-11-23T01:58:20;98266.19;;;2.43;97.22
21086;BME280;34247;50.064;19.970;2022-11-23T01:59:27;98270.50;;;2.44;97.23
21086;BME280;34247;50.064;19.970;2022-11-23T02:00:33;98268.81;;;2.43;97.12
21086;BME280;34247;50.064;19.970;2022-11-23T02:01:38;98268.88;;;2.42;97.12
21086;BME280;34247;50.064;19.970;2022-11-23T02:02:52;98269.75;;;2.42;96.80
21086;BME280;34247;50.064;19.970;2022-11-23T02:04:00;98266.28;;;2.42;97.04
21086;BME280;34247;50.064;19.970;2022-11-23T02:05:05;98265.44;;;2.41;97.22
21086;BME280;34247;50.064;19.970;2022-11-23T02:06:14;98257.47;;;2.43;97.16
21086;BME280;34247;50.064;19.970;2022-11-23T02:07:22;98256.72;;;2.41;97.14
21086;BME280;34247;50.064;19.970;2022-11-23T02:08:27;98262.81;;;2.41;97.29
21086;BME280;34247;50.064;19.970;2022-11-23T02:09:33;98260.31;;;2.38;97.21
21086;BME280;34247;50.064;19.970;2022-11-23T02:10:38;98260.28;;;2.40;97.32
21086;BME280;34247;50.064;19.970;2022-11-23T02:11:42;98262.94;;;2.38;96.98
21086;BME280;34247;50.064;19.970;2022-11-23T02:12:45;98252.41;;;2.40;97.15
21086;BME280;34247;50.064;19.970;2022-11-23T02:13:50;98254.09;;;2.41;97.19
21086;BME280;34247;50.064;19.970;2022-11-23T02:14:54;98254.94;;;2.41;96.94
21086;BME280;34247;50.064;19.970;2022-11-23T02:15:58;98255.09;;;2.38;97.25
21086;BME280;34247;50.064;19.970;2022-11-23T02:17:03;98254.09;;;2.41;97.02
21086;BME280;34247;50.064;19.970;2022-11-23T02:18:23;98246.25;;;2.41;97.06
21086;BME280;34247;50.064;19.970;2022-11-23T02:20:58;98244.38;;;2.43;97.25
21086;BME280;34247;50.064;19.970;2022-11-23T02:22:09;98243.38;;;2.45;97.34
21086;BME280;34247;50.064;19.970;2022-11-23T02:24:43;98245.22;;;2.43;97.18
21086;BME280;34247;50.064;19.970;2022-11-23T02:26:17;98247.00;;;2.43;97.33
21086;BME280;34247;50.064;19.970;2022-11-23T02:27:24;98250.38;;;2.45;97.19
21086;BME280;34247;50.064;19.970;2022-11-23T02:28:48;98249.44;;;2.46;97.42
21086;BME280;34247;50.064;19.970;2022-11-23T02:29:58;98251.41;;;2.42;97.20
21086;BME280;34247;50.064;19.970;2022-11-23T02:31:03;98246.16;;;2.42;97.38
21086;BME280;34247;50.064;19.970;2022-11-23T02:32:07;98250.56;;;2.42;97.29
21086;BME280;34247;50.064;19.970;2022-11-23T02:33:11;98250.56;;;2.42;97.04
21086;BME280;34247;50.064;19.970;2022-11-23T02:34:17;98251.41;;;2.42;97.23
21086;BME280;34247;50.064;19.970;2022-11-23T02:35:21;98253.09;;;2.43;96.98
21086;BME280;34247;50.064;19.970;2022-11-23T02:36:41;98250.56;;;2.42;97.42
21086;BME280;34247;50.064;19.970;2022-11-23T02:37:45;98251.31;;;2.44;97.36
21086;BME280;34247;50.064;19.970;2022-11-23T02:38:49;98253.00;;;2.45;97.42
21086;BME280;34247;50.064;19.970;2022-11-23T02:39:54;98246.06;;;2.44;97.38
21086;BME280;34247;50.064;19.970;2022-11-23T02:40:59;98254.56;;;2.49;97.37
21086;BME280;34247;50.064;19.970;2022-11-23T02:42:04;98253.63;;;2.50;97.27
21086;BME280;34247;50.064;19.970;2022-11-23T02:43:11;98249.22;;;2.51;97.48
21086;BME280;34247;50.064;19.970;2022-11-23T02:46:20;98248.22;;;2.53;97.56
21086;BME280;34247;50.064;19.970;2022-11-23T02:47:23;98248.16;;;2.55;97.34
21086;BME280;34247;50.064;19.970;2022-11-23T02:48:27;98246.28;;;2.57;97.18
21086;BME280;34247;50.064;19.970;2022-11-23T02:49:31;98249.75;;;2.57;97.37
21086;BME280;34247;50.064;19.970;2022-11-23T02:50:35;98240.13;;;2.58;97.40
21086;BME280;34247;50.064;19.970;2022-11-23T02:51:39;98244.34;;;2.60;97.31
21086;BME280;34247;50.064;19.970;2022-11-23T02:52:42;98250.47;;;2.61;97.24
21086;BME280;34247;50.064;19.970;2022-11-23T02:53:46;98247.06;;;2.59;97.08
21086;BME280;34247;50.064;19.970;2022-11-23T02:54:50;98243.50;;;2.60;97.08
21086;BME280;34247;50.064;19.970;2022-11-23T02:55:54;98242.59;;;2.61;97.18
21086;BME280;34247;50.064;19.970;2022-11-23T02:56:58;98249.44;;;2.63;97.46
21086;BME280;34247;50.064;19.970;2022-11-23T02:58:03;98245.03;;;2.64;97.39
21086;BME280;34247;50.064;19.970;2022-11-23T02:59:07;98244.19;;;2.63;97.48
21086;BME280;34247;50.064;19.970;2022-11-23T03:00:11;98244.97;;;2.65;97.43
21086;BME280;34247;50.064;19.970;2022-11-23T03:01:15;98246.66;;;2.66;97.28
21086;BME280;34247;50.064;19.970;2022-11-23T03:02:19;98244.97;;;2.65;97.47
21086;BME280;34247;50.064;19.970;2022-11-23T03:03:23;98247.66;;;2.64;97.18
21086;BME280;34247;50.064;19.970;2022-11-23T03:04:27;98250.94;;;2.67;97.69
21086;BME280;34247;50.064;19.970;2022-11-23T03:05:30;98249.59;;;2.60;97.74
21086;BME280;34247;50.064;19.970;2022-11-23T03:06:35;98247.56;;;2.65;98.09
21086;BME280;34247;50.064;19.970;2022-11-23T03:07:38;98245.88;;;2.64;97.71
21086;BME280;34247;50.064;19.970;2022-11-23T03:08:42;98251.75;;;2.69;97.67
21086;BME280;34247;50.064;19.970;2022-11-23T03:09:46;98249.97;;;2.70;97.77
21086;BME280;34247;50.064;19.970;2022-11-23T03:10:49;98242.03;;;2.71;97.51
21086;BME280;34247;50.064;19.970;2022-11-23T03:11:54;98241.31;;;2.68;97.75
21086;BME280;34247;50.064;19.970;2022-11-23T03:12:57;98244.97;;;2.65;98.01
21086;BME280;34247;50.064;19.970;2022-11-23T03:14:02;98237.34;;;2.61;98.09
21086;BME280;34247;50.064;19.970;2022-11-23T03:15:06;98245.22;;;2.61;98.23
21086;BME280;34247;50.064;19.970;2022-11-23T03:16:10;98239.28;;;2.57;98.65
21086;BME280;34247;50.064;19.970;2022-11-23T03:17:14;98243.66;;;2.57;98.63
21086;BME280;34247;50.064;19.970;2022-11-23T03:18:18;98245.28;;;2.59;98.72
21086;BME280;34247;50.064;19.970;2022-11-23T03:19:21;98240.97;;;2.58;98.46
21086;BME280;34247;50.064;19.970;2022-11-23T03:20:25;98242.66;;;2.59;98.76
21086;BME280;34247;50.064;19.970;2022-11-23T03:21:29;98242.84;;;2.56;98.93
21086;BME280;34247;50.064;19.970;2022-11-23T03:22:33;98246.28;;;2.57;98.81
21086;BME280;34247;50.064;19.970;2022-11-23T03:23:37;98248.91;;;2.57;98.73
21086;BME280;34247;50.064;19.970;2022-11-23T03:24:40;98245.44;;;2.56;98.95
21086;BME280;34247;50.064;19.970;2022-11-23T03:25:44;98243.66;;;2.57;99.15
21086;BME280;34247;50.064;19.970;2022-11-23T03:26:48;98245.38;;;2.58;99.04
21086;BME280;34247;50.064;19.970;2022-11-23T03:27:52;98246.97;;;2.60;98.66
21086;BME280;34247;50.064;19.970;2022-11-23T03:28:55;98237.50;;;2.58;99.04
21086;BME280;34247;50.064;19.970;2022-11-23T03:30:01;98238.59;;;2.54;99.32
21086;BME280;34247;50.064;19.970;2022-11-23T03:31:05;98243.75;;;2.55;99.34
21086;BME280;34247;50.064;19.970;2022-11-23T03:32:09;98242.91;;;2.55;99.43
21086;BME280;34247;50.064;19.970;2022-11-23T03:33:14;98237.69;;;2.55;99.42
21086;BME280;34247;50.064;19.970;2022-11-23T03:34:18;98240.28;;;2.55;99.38
21086;BME280;34247;50.064;19.970;2022-11-23T03:35:22;98246.38;;;2.55;99.42
21086;BME280;34247;50.064;19.970;2022-11-23T03:36:26;98247.31;;;2.54;99.35
21086;BME280;34247;50.064;19.970;2022-11-23T03:37:29;98250.81;;;2.53;99.27
21086;BME280;34247;50.064;19.970;2022-11-23T03:38:33;98245.53;;;2.55;99.78
21086;BME280;34247;50.064;19.970;2022-11-23T03:39:36;98244.59;;;2.56;99.30
21086;BME280;34247;50.064;19.970;2022-11-23T03:40:48;98249.84;;;2.56;99.25
21086;BME280;34247;50.064;19.970;2022-11-23T03:41:51;98242.75;;;2.58;99.61
21086;BME280;34247;50.064;19.970;2022-11-23T03:42:55;98238.22;;;2.61;99.26
21086;BME280;34247;50.064;19.970;2022-11-23T03:43:58;98251.22;;;2.63;99.27
21086;BME280;34247;50.064;19.970;2022-11-23T03:45:03;98248.59;;;2.63;99.09
21086;BME280;34247;50.064;19.970;2022-11-23T03:46:06;98244.28;;;2.62;99.15
21086;BME280;34247;50.064;19.970;2022-11-23T03:47:11;98244.28;;;2.62;99.42
21086;BME280;34247;50.064;19.970;2022-11-23T03:48:15;98242.44;;;2.64;99.07
21086;BME280;34247;50.064;19.970;2022-11-23T03:49:19;98239.81;;;2.64;98.95
21086;BME280;34247;50.064;19.970;2022-11-23T03:50:23;98246.56;;;2.68;98.98
21086;BME280;34247;50.064;19.970;2022-11-23T03:51:26;98239.81;;;2.64;98.98
21086;BME280;34247;50.064;19.970;2022-11-23T03:52:30;98233.09;;;2.58;99.43
21086;BME280;34247;50.064;19.970;2022-11-23T03:53:34;98239.09;;;2.60;99.09
21086;BME280;34247;50.064;19.970;2022-11-23T03:54:37;98249.59;;;2.60;99.06
21086;BME280;34247;50.064;19.970;2022-11-23T03:55:41;98247.75;;;2.62;98.98
21086;BME280;34247;50.064;19.970;2022-11-23T03:56:45;98244.28;;;2.62;99.18
21086;BME280;34247;50.064;19.970;2022-11-23T03:57:48;98239.06;;;2.62;99.27
21086;BME280;34247;50.064;19.970;2022-11-23T03:58:52;98247.06;;;2.59;99.19
21086;BME280;34247;50.064;19.970;2022-11-23T03:59:55;98242.75;;;2.58;99.41
21086;BME280;34247;50.064;19.970;2022-11-23T04:00:59;98235.06;;;2.55;99.23
21086;BME280;34247;50.064;19.970;2022-11-23T04:02:02;98237.50;;;2.58;99.43
21086;BME280;34247;50.064;19.970;2022-11-23T04:03:06;98236.88;;;2.53;99.43
21086;BME280;34247;50.064;19.970;2022-11-23T04:04:09;98231.72;;;2.51;99.77
21086;BME280;34247;50.064;19.970;2022-11-23T04:05:14;98244.75;;;2.53;99.95
21086;BME280;34247;50.064;19.970;2022-11-23T04:06:18;98242.13;;;2.53;99.60
21086;BME280;34247;50.064;19.970;2022-11-23T04:07:23;98239.59;;;2.51;99.75
21086;BME280;34247;50.064;19.970;2022-11-23T04:08:29;98239.75;;;2.48;100.00
21086;BME280;34247;50.064;19.970;2022-11-23T04:09:32;98240.63;;;2.48;99.84
21086;BME280;34247;50.064;19.970;2022-11-23T04:10:36;98233.69;;;2.47;99.95
21086;BME280;34247;50.064;19.970;2022-11-23T04:11:40;98236.34;;;2.46;100.00
21086;BME280;34247;50.064;19.970;2022-11-23T04:12:43;98235.38;;;2.48;100.00
21086;BME280;34247;50.064;19.970;2022-11-23T04:13:47;98242.31;;;2.49;99.90
21086;BME280;34247;50.064;19.970;2022-11-23T04:14:51;98245.69;;;2.52;99.85
21086;BME280;34247;50.064;19.970;2022-11-23T04:15:55;98239.59;;;2.51;99.82
21086;BME280;34247;50.064;19.970;2022-11-23T04:16:58;98238.66;;;2.52;99.93
21086;BME280;34247;50.064;19.970;2022-11-23T04:18:02;98237.69;;;2.55;99.67
21086;BME280;34247;50.064;19.970;2022-11-23T04:19:06;98239.38;;;2.56;99.68
21086;BME280;34247;50.064;19.970;2022-11-23T04:20:10;98241.06;;;2.57;99.75
21086;BME280;34247;50.064;19.970;2022-11-23T04:21:14;98233.19;;;2.57;99.72
21086;BME280;34247;50.064;19.970;2022-11-23T04:22:22;98238.25;;;2.60;99.90
21086;BME280;34247;50.064;19.970;2022-11-23T04:23:26;98238.97;;;2.63;99.64
21086;BME280;34247;50.064;19.970;2022-11-23T04:24:29;98239.72;;;2.65;99.40
21086;BME280;34247;50.064;19.970;2022-11-23T04:25:33;98239.97;;;2.61;99.16
21086;BME280;34247;50.064;19.970;2022-11-23T04:26:37;98239.09;;;2.60;99.71
21086;BME280;34247;50.064;19.970;2022-11-23T04:27:43;98238.13;;;2.63;99.46
21086;BME280;34247;50.064;19.970;2022-11-23T04:28:47;98234.56;;;2.64;99.28
21086;BME280;34247;50.064;19.970;2022-11-23T04:29:50;98243.34;;;2.63;99.07
21086;BME280;34247;50.064;19.970;2022-11-23T04:30:54;98234.78;;;2.59;99.15
21086;BME280;34247;50.064;19.970;2022-11-23T04:31:58;98245.22;;;2.61;99.32
21086;BME280;34247;50.064;19.970;2022-11-23T04:33:02;98242.84;;;2.56;98.98
21086;BME280;34247;50.064;19.970;2022-11-23T04:34:05;98241.81;;;2.59;99.12
21086;BME280;34247;50.064;19.970;2022-11-23T04:35:09;98242.75;;;2.58;99.15
21086;BME280;34247;50.064;19.970;2022-11-23T04:36:15;98234.22;;;2.54;99.05
21086;BME280;34247;50.064;19.970;2022-11-23T04:37:19;98241.13;;;2.55;99.09
21086;BME280;34247;50.064;19.970;2022-11-23T04:38:23;98245.53;;;2.55;98.76
21086;BME280;34247;50.064;19.970;2022-11-23T04:39:27;98239.59;;;2.51;98.86
21086;BME280;34247;50.064;19.970;2022-11-23T04:40:30;98238.00;;;2.48;98.82
21086;BME280;34247;50.064;19.970;2022-11-23T04:41:34;98239.75;;;2.48;98.72
21086;BME280;34247;50.064;19.970;2022-11-23T04:42:38;98243.31;;;2.47;98.87
21086;BME280;34247;50.064;19.970;2022-11-23T04:43:42;98242.94;;;2.37;99.09
21086;BME280;34247;50.064;19.970;2022-11-23T04:44:47;98244.78;;;2.35;99.38
21086;BME280;34247;50.064;19.970;2022-11-23T04:45:50;98239.63;;;2.34;99.45
21086;BME280;34247;50.064;19.970;2022-11-23T04:46:54;98241.47;;;2.32;99.58
21086;BME280;34247;50.064;19.970;2022-11-23T04:47:58;98244.03;;;2.33;99.67
21086;BME280;34247;50.064;19.970;2022-11-23T04:49:08;98244.78;;;2.35;99.59
21086;BME280;34247;50.064;19.970;2022-11-23T04:50:12;98249.00;;;2.38;99.54
21086;BME280;34247;50.064;19.970;2022-11-23T04:51:17;98244.88;;;2.34;99.70
21086;BME280;34247;50.064;19.970;2022-11-23T04:52:20;98243.31;;;2.30;99.79
21086;BME280;34247;50.064;19.970;2022-11-23T04:53:25;98251.88;;;2.33;99.86
21086;BME280;34247;50.064;19.970;2022-11-23T04:54:28;98256.19;;;2.34;99.67
21086;BME280;34247;50.064;19.970;2022-11-23T04:55:33;98259.97;;;2.29;99.74
21086;BME280;34247;50.064;19.970;2022-11-23T04:56:39;98252.03;;;2.30;99.60
21086;BME280;34247;50.064;19.970;2022-11-23T04:57:43;98247.97;;;2.25;99.86
21086;BME280;34247;50.064;19.970;2022-11-23T04:58:47;98255.56;;;2.29;99.83
21086;BME280;34247;50.064;19.970;2022-11-23T04:59:52;98246.59;;;2.17;99.65
21086;BME280;34247;50.064;19.970;2022-11-23T05:00:57;98248.50;;;2.14;99.80
21086;BME280;34247;50.064;19.970;2022-11-23T05:02:01;98244.19;;;2.13;100.00
21086;BME280;34247;50.064;19.970;2022-11-23T05:03:05;98245.88;;;2.14;100.00
21086;BME280;34247;50.064;19.970;2022-11-23T05:04:10;98250.19;;;2.15;100.00
21086;BME280;34247;50.064;19.970;2022-11-23T05:05:19;98252.13;;;2.11;100.00
21086;BME280;34247;50.064;19.970;2022-11-23T05:06:23;98244.31;;;2.10;100.00
21086;BME280;34247;50.064;19.970;2022-11-23T05:07:28;98247.56;;;2.15;100.00
21086;BME280;34247;50.064;19.970;2022-11-23T05:08:33;98251.97;;;2.14;100.00
21086;BME280;34247;50.064;19.970;2022-11-23T05:09:36;98259.59;;;2.19;100.00
21086;BME280;34247;50.064;19.970;2022-11-23T05:10:40;98245.56;;;2.20;100.00
21086;BME280;34247;50.064;19.970;2022-11-23T05:11:44;98248.31;;;2.17;100.00
21086;BME280;34247;50.064;19.970;2022-11-23T05:12:47;98249.13;;;2.19;100.00
21086;BME280;34247;50.064;19.970;2022-11-23T05:13:51;98245.56;;;2.20;100.00
21086;BME280;34247;50.064;19.970;2022-11-23T05:14:56;98264.84;;;2.19;100.00
21086;BME280;34247;50.064;19.970;2022-11-23T05:15:59;98252.81;;;2.15;100.00
21086;BME280;34247;50.064;19.970;2022-11-23T05:17:03;98256.34;;;2.14;100.00
21086;BME280;34247;50.064;19.970;2022-11-23T05:18:07;98258.03;;;2.15;100.00
21086;BME280;34247;50.064;19.970;2022-11-23T05:19:12;98257.06;;;2.17;100.00
21086;BME280;34247;50.064;19.970;2022-11-23T05:20:17;98259.72;;;2.16;100.00
21086;BME280;34247;50.064;19.970;2022-11-23T05:21:20;98259.91;;;2.13;100.00
21086;BME280;34247;50.064;19.970;2022-11-23T05:22:24;98254.97;;;2.07;100.00
21086;BME280;34247;50.064;19.970;2022-11-23T05:23:30;98257.41;;;2.10;100.00
21086;BME280;34247;50.064;19.970;2022-11-23T05:24:34;98261.25;;;2.03;100.00
21086;BME280;34247;50.064;19.970;2022-11-23T05:25:37;98262.66;;;1.92;100.00
21086;BME280;34247;50.064;19.970;2022-11-23T05:26:42;98267.25;;;1.87;100.00
21086;BME280;34247;50.064;19.970;2022-11-23T05:27:45;98268.34;;;1.83;100.00
21086;BME280;34247;50.064;19.970;2022-11-23T05:28:49;98258.81;;;1.82;100.00
21086;BME280;34247;50.064;19.970;2022-11-23T05:29:52;98259.88;;;1.78;100.00
21086;BME280;34247;50.064;19.970;2022-11-23T05:30:56;98264.03;;;1.82;100.00
21086;BME280;34247;50.064;19.970;2022-11-23T05:32:00;98263.75;;;1.88;100.00
21086;BME280;34247;50.064;19.970;2022-11-23T05:33:04;98268.19;;;1.86;100.00
21086;BME280;34247;50.064;19.970;2022-11-23T05:34:07;98263.97;;;1.84;100.00
21086;BME280;34247;50.064;19.970;2022-11-23T05:35:11;98266.50;;;1.85;100.00
21086;BME280;34247;50.064;19.970;2022-11-23T05:36:15;98268.34;;;1.83;100.00
21086;BME280;34247;50.064;19.970;2022-11-23T05:37:19;98266.38;;;1.88;100.00
21086;BME280;34247;50.064;19.970;2022-11-23T05:38:25;98268.09;;;1.88;100.00
21086;BME280;34247;50.064;19.970;2022-11-23T05:39:29;98265.50;;;1.88;100.00
21086;BME280;34247;50.064;19.970;2022-11-23T05:40:33;98270.81;;;1.86;100.00
21086;BME280;34247;50.064;19.970;2022-11-23T05:41:37;98260.97;;;1.91;100.00
21086;BME280;34247;50.064;19.970;2022-11-23T05:42:40;98264.59;;;1.89;100.00
21086;BME280;34247;50.064;19.970;2022-11-23T05:43:44;98268.09;;;1.88;100.00
21086;BME280;34247;50.064;19.970;2022-11-23T05:44:48;98268.09;;;1.88;100.00
21086;BME280;34247;50.064;19.970;2022-11-23T05:45:52;98261.44;;;1.82;100.00
21086;BME280;34247;50.064;19.970;2022-11-23T05:46:55;98265.81;;;1.82;100.00
21086;BME280;34247;50.064;19.970;2022-11-23T05:47:59;98276.34;;;1.80;100.00
21086;BME280;34247;50.064;19.970;2022-11-23T05:49:03;98266.78;;;1.79;100.00
21086;BME280;34247;50.064;19.970;2022-11-23T05:50:07;98275.47;;;1.80;100.00
21086;BME280;34247;50.064;19.970;2022-11-23T05:51:11;98277.72;;;1.70;100.00
21086;BME280;34247;50.064;19.970;2022-11-23T05:52:15;98268.25;;;1.68;100.00